Wattsburg, Pennsylvania
Current Conditions -  °F | °C
As of 10:51 PM on Friday 24 Oct 2014 (Local Time) from KERI Reporting Station
Overcast Overcast  
Wind Chill: 53°   Ceiling: 4600
Heat Index: 53°   Visibility: 10mi
Dew Point: 44°   Wind: 3mph
Humidity: 71%   Direction: 200°SSW
Pressure: 29.98"   Gusts: NA
Location:  42°N, 79.81°W
Report Text: KERI 250251Z AUTO 20003KT 10SM OVC046 12/07 A2998 RMK AO2 SLP152 T01170067 58006 TSNO
Loading
Personal Weather Stations






























Interactive Weather Map New forecast layout! Learn more

10-Day Weather Forecast

Advertisements
Track Severe Weather on mobile